Time;durP1;ratioP1;P1;durP2;ratioP2;P2;SDS_P1;SDS_P2;PMS_P1;PMS_P2;Temp;Humidity;BMP_temperature;BMP_pressure;BME280_temperature;BME280_humidity;BME280_pressure;Samples;Min_cycle;Max_cycle;Signal;HPM_P1;HPM_P2
2023/01/01 00:01:26;;;;;;;56.72;44.28;;;13.00;99.90;;;;;;5080798;28;20610;-68
2023/01/01 00:03:55;;;;;;;45.25;34.30;;;13.00;99.90;;;;;;5086494;28;20052;-68
2023/01/01 00:06:21;;;;;;;57.15;44.13;;;13.00;99.90;;;;;;5061487;28;20410;-68
2023/01/01 00:08:47;;;;;;;46.63;32.40;;;12.90;99.90;;;;;;5084049;28;20045;-68
2023/01/01 00:11:13;;;;;;;38.40;28.88;;;12.90;99.90;;;;;;5085437;28;20035;-68
2023/01/01 00:13:41;;;;;;;44.90;35.38;;;12.90;99.90;;;;;;5081922;28;20064;-68
2023/01/01 00:16:12;;;;;;;42.60;34.55;;;12.80;99.90;;;;;;5079355;28;20047;-67
2023/01/01 00:18:38;;;;;;;84.88;69.57;;;12.80;99.90;;;;;;5080819;28;20048;-68
2023/01/01 00:21:13;;;;;;;64.35;46.90;;;12.80;99.90;;;;;;5084836;28;20044;-68
2023/01/01 00:23:38;;;;;;;;;;;12.80;99.90;;;;;;5070322;28;20507;-67
2023/01/01 00:26:16;;;;;;;57.10;46.08;;;12.70;99.90;;;;;;5083167;28;19926;-68
2023/01/01 00:28:42;;;;;;;48.97;40.17;;;12.70;99.90;;;;;;5089737;28;20425;-68
2023/01/01 00:31:16;;;;;;;53.53;42.63;;;12.70;99.90;;;;;;5067643;28;20037;-68
2023/01/01 00:33:42;;;;;;;45.88;34.65;;;12.70;99.90;;;;;;5070034;28;20097;-68
2023/01/01 00:36:09;;;;;;;48.05;37.78;;;12.70;99.90;;;;;;5087644;28;20124;-68
2023/01/01 00:38:35;;;;;;;43.28;33.70;;;12.60;99.90;;;;;;5086932;28;20048;-68
2023/01/01 00:41:02;;;;;;;37.38;28.67;;;12.60;99.90;;;;;;5087266;28;20136;-68
2023/01/01 00:43:27;;;;;;;43.08;30.77;;;12.60;99.90;;;;;;5084218;28;20079;-67
2023/01/01 00:45:53;;;;;;;38.00;28.42;;;12.60;99.90;;;;;;5086904;28;20076;-67
2023/01/01 00:48:20;;;;;;;32.15;24.13;;;12.60;99.90;;;;;;5087024;28;20107;-68
2023/01/01 00:50:49;;;;;;;36.30;24.70;;;12.70;99.90;;;;;;5081887;28;20566;-68
2023/01/01 00:53:15;;;;;;;33.50;24.70;;;12.70;99.90;;;;;;5076159;28;20068;-67
2023/01/01 00:55:41;;;;;;;35.63;24.30;;;12.70;99.90;;;;;;5082621;28;20140;-67
2023/01/01 00:58:07;;;;;;;33.13;24.38;;;12.70;99.90;;;;;;5078282;28;20591;-67
2023/01/01 01:00:34;;;;;;;33.30;22.45;;;12.80;99.90;;;;;;5083187;28;20161;-67
2023/01/01 01:03:00;;;;;;;31.83;21.10;;;12.80;99.90;;;;;;5078465;28;20040;-67
2023/01/01 01:05:26;;;;;;;28.90;21.35;;;12.80;99.90;;;;;;5084312;28;20029;-67
2023/01/01 01:07:52;;;;;;;31.15;20.15;;;12.80;99.90;;;;;;5079954;28;20043;-67
2023/01/01 01:10:20;;;;;;;30.65;20.00;;;12.80;99.90;;;;;;5079499;28;20480;-67
2023/01/01 01:12:46;;;;;;;28.58;19.40;;;12.90;99.90;;;;;;5076934;28;20099;-67
2023/01/01 01:15:12;;;;;;;29.83;17.25;;;12.90;99.90;;;;;;5081169;28;20071;-67
2023/01/01 01:17:38;;;;;;;29.70;20.58;;;12.90;99.90;;;;;;5081235;28;20079;-67
2023/01/01 01:20:04;;;;;;;35.63;26.63;;;13.00;99.90;;;;;;5080843;28;20392;-67
2023/01/01 01:22:30;;;;;;;29.85;21.77;;;13.00;99.90;;;;;;5078131;28;20046;-67
2023/01/01 01:24:56;;;;;;;29.52;19.60;;;13.00;99.90;;;;;;5078804;28;20488;-67
2023/01/01 01:27:22;;;;;;;29.50;20.63;;;13.10;99.90;;;;;;5083936;28;20044;-67
2023/01/01 01:29:48;;;;;;;30.02;20.35;;;13.10;99.90;;;;;;5080604;28;20036;-67
2023/01/01 01:32:14;;;;;;;29.77;18.92;;;13.10;99.90;;;;;;5083219;28;20036;-67
2023/01/01 01:34:39;;;;;;;29.08;20.42;;;13.10;99.90;;;;;;5080362;28;20400;-67
2023/01/01 01:37:05;;;;;;;34.65;20.48;;;13.10;99.90;;;;;;5081019;28;20071;-67
2023/01/01 01:39:31;;;;;;;30.55;18.42;;;13.10;99.90;;;;;;5062570;28;20541;-68
2023/01/01 01:41:57;;;;;;;27.33;18.58;;;13.10;99.90;;;;;;5078436;28;20071;-68
2023/01/01 01:44:52;;;;;;;28.90;17.67;;;13.10;99.90;;;;;;5078443;28;20040;-67
2023/01/01 01:47:35;;;;;;;;;;;13.10;99.90;;;;;;5080880;28;20044;-67
2023/01/01 01:50:09;;;;;;;29.92;18.45;;;13.10;99.90;;;;;;5077999;28;19917;-67
2023/01/01 01:52:39;;;;;;;22.70;16.55;;;13.10;99.90;;;;;;5078678;28;20526;-67
2023/01/01 01:55:06;;;;;;;25.98;19.10;;;13.10;99.90;;;;;;5078534;28;20502;-67
2023/01/01 01:57:33;;;;;;;27.98;16.90;;;13.00;99.90;;;;;;5083686;28;20135;-67
2023/01/01 02:00:00;;;;;;;26.92;17.98;;;13.00;99.90;;;;;;5084011;28;20024;-67
2023/01/01 02:02:37;;;;;;;29.38;18.35;;;13.00;99.90;;;;;;5079290;28;20070;-67
2023/01/01 02:05:04;;;;;;;27.63;18.33;;;13.00;99.90;;;;;;5080533;28;20043;-67
2023/01/01 02:07:32;;;;;;;27.40;16.80;;;12.90;99.90;;;;;;5080474;28;20047;-67
2023/01/01 02:09:59;;;;;;;26.08;16.63;;;13.00;99.90;;;;;;5072798;28;20040;-67
2023/01/01 02:12:29;;;;;;;20.45;15.90;;;13.00;99.90;;;;;;5078572;28;20040;-67
2023/01/01 02:14:55;;;;;;;24.90;15.50;;;13.00;99.90;;;;;;5081117;28;20551;-67
2023/01/01 02:17:31;;;;;;;21.40;14.90;;;13.00;99.90;;;;;;5079331;28;20086;-67
2023/01/01 02:20:00;;;;;;;25.45;15.50;;;13.10;99.90;;;;;;5077943;28;20032;-67
2023/01/01 02:22:35;;;;;;;25.00;14.13;;;13.00;99.90;;;;;;5062963;28;20055;-67
2023/01/01 02:25:24;;;;;;;25.63;15.77;;;13.00;99.90;;;;;;5081736;28;20047;-67
2023/01/01 02:28:24;;;;;;;21.80;14.15;;;13.10;99.90;;;;;;5078678;28;20036;-67
2023/01/01 02:30:52;;;;;;;23.92;13.55;;;13.10;99.90;;;;;;5079461;28;20128;-67
2023/01/01 02:33:23;;;;;;;18.25;11.55;;;13.10;99.90;;;;;;5084360;28;20028;-67
2023/01/01 02:35:58;;;;;;;18.50;11.02;;;13.10;99.90;;;;;;5062924;28;20121;-67
2023/01/01 02:38:32;;;;;;;20.40;11.27;;;13.10;99.90;;;;;;5079311;28;20407;-67
2023/01/01 02:41:19;;;;;;;20.97;10.47;;;13.20;99.90;;;;;;5080517;28;20163;-67
2023/01/01 02:43:45;;;;;;;19.02;10.40;;;13.10;99.90;;;;;;5077445;28;20294;-67
2023/01/01 02:46:11;;;;;;;18.10;9.00;;;13.20;99.90;;;;;;5060767;28;20471;-67
2023/01/01 02:48:41;;;;;;;19.80;10.15;;;13.20;99.90;;;;;;5076589;28;20068;-67
2023/01/01 02:51:18;;;;;;;19.73;9.70;;;13.10;99.90;;;;;;5082366;28;20036;-67
2023/01/01 02:53:58;;;;;;;14.77;9.30;;;13.20;99.90;;;;;;5078522;28;20075;-67
2023/01/01 02:56:49;;;;;;;19.73;8.73;;;13.20;99.90;;;;;;5058979;28;20476;-67
2023/01/01 03:02:35;;;;;;;17.30;8.43;;;13.20;99.90;;;;;;5079740;28;20068;-67
2023/01/01 03:05:19;;;;;;;13.07;5.90;;;13.20;99.90;;;;;;5077948;28;20044;-67
2023/01/01 03:08:09;;;;;;;15.00;6.10;;;13.20;99.90;;;;;;5077007;28;20492;-67
2023/01/01 03:11:06;;;;;;;15.10;5.97;;;13.30;99.90;;;;;;5078427;28;20286;-67
2023/01/01 03:13:59;;;;;;;10.32;5.15;;;13.30;99.90;;;;;;5076448;28;20499;-67
2023/01/01 03:16:40;;;;;;;16.15;5.68;;;13.40;99.90;;;;;;5074626;28;20110;-67
2023/01/01 03:19:27;;;;;;;11.23;4.35;;;13.40;99.90;;;;;;5080208;28;20563;-66
2023/01/01 03:22:02;;;;;;;14.20;4.20;;;13.50;99.90;;;;;;5075243;28;20127;-67
2023/01/01 03:24:51;;;;;;;8.30;2.90;;;13.50;99.90;;;;;;5075663;28;20040;-67
2023/01/01 03:27:27;;;;;;;11.90;3.10;;;13.60;99.90;;;;;;5078454;28;20480;-67
2023/01/01 03:29:57;;;;;;;17.67;5.15;;;13.70;99.90;;;;;;5078626;28;20039;-67
2023/01/01 03:35:24;;;;;;;14.73;3.50;;;13.70;99.90;;;;;;5080948;28;20048;-67
2023/01/01 03:37:52;;;;;;;8.02;3.00;;;13.80;99.90;;;;;;5075070;28;20381;-67
2023/01/01 03:40:20;;;;;;;8.20;3.13;;;13.80;99.90;;;;;;5074059;28;20037;-66
2023/01/01 03:42:52;;;;;;;10.48;4.05;;;13.80;99.90;;;;;;5078237;28;20037;-67
2023/01/01 03:45:24;;;;;;;9.10;2.83;;;13.90;99.90;;;;;;5077644;28;20040;-66
2023/01/01 03:47:50;;;;;;;10.73;3.42;;;13.90;99.90;;;;;;5080241;28;20072;-66
2023/01/01 03:50:17;;;;;;;7.47;2.67;;;13.80;99.90;;;;;;5079908;28;20075;-67
2023/01/01 03:53:02;;;;;;;11.25;3.28;;;13.90;99.90;;;;;;5056765;28;20044;-66
2023/01/01 03:55:37;;;;;;;10.23;2.85;;;13.90;99.90;;;;;;5082496;28;20102;-66
2023/01/01 03:58:17;;;;;;;10.18;2.47;;;13.90;99.90;;;;;;5057845;28;20115;-66
2023/01/01 04:00:54;;;;;;;9.38;2.17;;;13.90;99.90;;;;;;5083891;28;20040;-66
2023/01/01 04:03:26;;;;;;;10.85;2.78;;;14.00;99.90;;;;;;5076469;28;20465;-66
2023/01/01 04:05:52;;;;;;;7.88;2.55;;;13.90;99.90;;;;;;5078743;28;20033;-66
2023/01/01 04:08:18;;;;;;;7.55;2.45;;;14.00;99.90;;;;;;5080992;28;20044;-66
2023/01/01 04:10:49;;;;;;;9.18;2.75;;;14.00;99.90;;;;;;5082567;28;20791;-67
2023/01/01 04:13:15;;;;;;;9.55;2.38;;;13.90;99.90;;;;;;5060357;28;20485;-66
2023/01/01 04:15:41;;;;;;;9.52;2.55;;;13.90;99.90;;;;;;5079258;28;20039;-66
2023/01/01 04:18:07;;;;;;;7.47;2.47;;;13.90;99.90;;;;;;5081781;28;20050;-66
2023/01/01 04:20:32;;;;;;;7.47;1.92;;;13.90;99.90;;;;;;5064393;28;20052;-66
2023/01/01 04:22:59;;;;;;;11.85;2.63;;;13.90;99.90;;;;;;5076991;28;20494;-66
2023/01/01 04:25:26;;;;;;;9.05;2.45;;;14.00;99.90;;;;;;5081784;28;20032;-66
2023/01/01 04:27:51;;;;;;;8.93;2.15;;;13.90;99.90;;;;;;5086619;28;20368;-66
2023/01/01 04:30:17;;;;;;;7.60;2.63;;;14.00;99.90;;;;;;5083763;28;20047;-66
2023/01/01 04:32:43;;;;;;;6.18;2.33;;;13.90;99.90;;;;;;5084667;28;20136;-66
2023/01/01 04:35:11;;;;;;;7.45;2.15;;;13.80;99.90;;;;;;5081304;28;20044;-67
2023/01/01 04:37:42;;;;;;;10.63;2.60;;;13.80;99.90;;;;;;5082409;28;20126;-67
2023/01/01 04:40:09;;;;;;;11.38;2.92;;;13.80;99.90;;;;;;5064029;28;20039;-67
2023/01/01 04:42:35;;;;;;;10.25;2.75;;;13.70;99.90;;;;;;5081668;28;20484;-67
2023/01/01 04:45:01;;;;;;;7.22;1.88;;;13.50;99.90;;;;;;5077746;28;20050;-67
2023/01/01 04:47:27;;;;;;;7.68;2.35;;;13.40;99.90;;;;;;5083939;28;20032;-67
2023/01/01 04:49:53;;;;;;;11.40;2.58;;;13.30;99.90;;;;;;5080593;28;20425;-67
2023/01/01 04:52:19;;;;;;;12.23;2.35;;;13.20;99.90;;;;;;5076947;28;20453;-66
2023/01/01 04:54:45;;;;;;;8.13;2.28;;;13.10;99.90;;;;;;5078650;28;20178;-66
2023/01/01 04:57:11;;;;;;;9.18;2.20;;;13.10;99.90;;;;;;5065621;28;20048;-66
2023/01/01 04:59:36;;;;;;;7.80;2.05;;;13.00;99.90;;;;;;5082400;28;20048;-66
2023/01/01 05:02:02;;;;;;;8.38;2.33;;;13.10;99.90;;;;;;5063060;28;20063;-66
2023/01/01 05:04:28;;;;;;;10.57;2.03;;;13.10;99.90;;;;;;5080026;28;20131;-66
2023/01/01 05:06:54;;;;;;;11.32;2.13;;;13.10;99.90;;;;;;5083620;28;20038;-66
2023/01/01 05:09:20;;;;;;;6.03;1.75;;;13.20;99.90;;;;;;5080647;28;20464;-66
2023/01/01 05:11:45;;;;;;;8.98;1.83;;;13.20;99.90;;;;;;5074587;28;20052;-67
2023/01/01 05:14:11;;;;;;;7.18;1.88;;;13.20;99.90;;;;;;5082443;28;20037;-67
2023/01/01 05:16:38;;;;;;;8.57;1.40;;;13.20;99.90;;;;;;5063661;28;20064;-67
2023/01/01 05:19:06;;;;;;;8.32;1.33;;;13.30;99.90;;;;;;5079295;28;20036;-66
2023/01/01 05:21:37;;;;;;;5.75;1.63;;;13.30;99.90;;;;;;5078698;28;20032;-66
2023/01/01 05:24:08;;;;;;;8.00;1.27;;;13.30;99.90;;;;;;5059825;28;20439;-66
2023/01/01 05:26:36;;;;;;;5.35;1.10;;;13.30;99.90;;;;;;5082940;28;20036;-66
2023/01/01 05:29:03;;;;;;;8.63;1.15;;;13.20;99.90;;;;;;5080337;28;20048;-66
2023/01/01 05:31:34;;;;;;;6.10;1.60;;;13.20;99.90;;;;;;5080625;28;20068;-67
2023/01/01 05:34:01;;;;;;;7.45;1.42;;;13.20;99.90;;;;;;5067215;28;20044;-67
2023/01/01 05:36:30;;;;;;;7.72;1.23;;;13.20;99.90;;;;;;5082455;28;20493;-67
2023/01/01 05:38:57;;;;;;;3.72;1.10;;;13.30;99.90;;;;;;5080317;28;20724;-67
2023/01/01 05:41:23;;;;;;;6.50;1.40;;;13.20;99.90;;;;;;5077049;28;20040;-66
2023/01/01 05:43:50;;;;;;;6.20;1.20;;;13.20;99.90;;;;;;5080294;28;20531;-67
2023/01/01 05:46:19;;;;;;;5.35;1.52;;;13.20;99.90;;;;;;5080965;28;20070;-67
2023/01/01 05:48:46;;;;;;;5.05;1.17;;;13.20;99.90;;;;;;5060412;28;20070;-67
2023/01/01 05:51:20;;;;;;;5.30;0.80;;;13.10;99.90;;;;;;5082025;28;20485;-67
2023/01/01 05:53:46;;;;;;;6.30;1.08;;;13.10;99.90;;;;;;5078084;28;20040;-67
2023/01/01 05:56:13;;;;;;;4.63;1.02;;;13.10;99.90;;;;;;5057826;28;20160;-67
2023/01/01 05:58:39;;;;;;;7.15;1.20;;;13.10;99.90;;;;;;5064242;28;20094;-67
2023/01/01 06:01:17;;;;;;;6.70;1.10;;;13.00;99.90;;;;;;5079640;28;20402;-66
2023/01/01 06:03:44;;;;;;;5.30;1.02;;;13.00;99.90;;;;;;5078816;28;20039;-66
2023/01/01 06:06:12;;;;;;;3.95;0.93;;;13.00;99.90;;;;;;5082079;28;20111;-67
2023/01/01 06:08:38;;;;;;;4.53;0.98;;;13.00;99.90;;;;;;5077185;28;20037;-67
2023/01/01 06:11:06;;;;;;;6.00;1.10;;;12.90;99.90;;;;;;5082465;28;20483;-67
2023/01/01 06:13:32;;;;;;;7.20;1.25;;;12.90;99.90;;;;;;5081949;28;20040;-67
2023/01/01 06:16:00;;;;;;;5.53;1.08;;;12.80;99.90;;;;;;5084378;28;20534;-66
2023/01/01 06:18:29;;;;;;;5.63;1.13;;;12.80;99.90;;;;;;5080183;28;20071;-67
2023/01/01 06:20:54;;;;;;;6.70;1.35;;;12.80;99.90;;;;;;5082181;28;20111;-66
2023/01/01 06:23:20;;;;;;;4.05;1.02;;;12.80;99.90;;;;;;5082580;28;20060;-67
2023/01/01 06:25:46;;;;;;;7.00;1.02;;;12.70;99.90;;;;;;5083641;28;20032;-66
2023/01/01 06:28:12;;;;;;;5.80;1.40;;;12.70;99.90;;;;;;5080002;28;20127;-66
2023/01/01 06:30:37;;;;;;;8.05;1.08;;;12.70;99.90;;;;;;5079054;28;20043;-66
2023/01/01 06:33:04;;;;;;;5.18;1.10;;;12.70;99.90;;;;;;5078596;28;20051;-66
2023/01/01 06:35:30;;;;;;;4.93;0.98;;;12.60;99.90;;;;;;5080413;28;20145;-66
2023/01/01 06:37:58;;;;;;;6.93;1.48;;;12.60;99.90;;;;;;5058716;28;20046;-66
2023/01/01 06:40:24;;;;;;;5.07;1.20;;;12.60;99.90;;;;;;5059984;28;20445;-66
2023/01/01 06:42:50;;;;;;;5.55;1.10;;;12.60;99.90;;;;;;5083894;28;20032;-66
2023/01/01 06:45:15;;;;;;;6.05;1.00;;;12.60;99.90;;;;;;5078312;28;20051;-66
2023/01/01 06:47:41;;;;;;;7.65;1.30;;;12.60;99.90;;;;;;5075323;28;20040;-67
2023/01/01 06:50:07;;;;;;;8.18;1.98;;;12.50;99.90;;;;;;5078400;28;20032;-66
2023/01/01 06:52:33;;;;;;;4.70;1.10;;;12.60;99.90;;;;;;5077781;28;20032;-66
2023/01/01 06:54:59;;;;;;;6.85;1.25;;;12.50;99.90;;;;;;5079135;28;20040;-66
2023/01/01 06:57:24;;;;;;;4.05;1.08;;;12.50;99.90;;;;;;5058568;28;20106;-66
2023/01/01 06:59:50;;;;;;;7.22;1.50;;;12.50;99.90;;;;;;5078963;28;20028;-66
2023/01/01 07:02:16;;;;;;;8.65;1.90;;;12.50;99.90;;;;;;5078059;28;20035;-66
2023/01/01 07:04:41;;;;;;;6.22;1.52;;;12.40;99.90;;;;;;5074775;28;20105;-66
2023/01/01 07:07:07;;;;;;;5.93;1.13;;;12.40;99.90;;;;;;5079802;28;20396;-66
2023/01/01 07:09:33;;;;;;;9.85;1.58;;;12.40;99.90;;;;;;5078706;28;20161;-66
2023/01/01 07:11:58;;;;;;;6.57;1.20;;;12.40;99.90;;;;;;5080021;28;20480;-66
2023/01/01 07:14:24;;;;;;;10.32;1.88;;;12.40;99.90;;;;;;5074963;28;20056;-66
2023/01/01 07:16:50;;;;;;;5.88;1.15;;;12.30;99.90;;;;;;5075690;28;20377;-66
2023/01/01 07:19:15;;;;;;;10.05;1.02;;;12.30;99.90;;;;;;5076596;28;20139;-66
2023/01/01 07:21:59;;;;;;;9.88;1.50;;;12.30;99.90;;;;;;5075796;28;20040;-66
2023/01/01 07:24:25;;;;;;;7.00;1.42;;;12.30;99.90;;;;;;5076493;28;20098;-66
2023/01/01 07:26:51;;;;;;;7.90;1.50;;;12.30;99.90;;;;;;5083238;28;20074;-66
2023/01/01 07:29:16;;;;;;;10.40;1.75;;;12.30;99.90;;;;;;5062021;28;20412;-66
2023/01/01 07:31:44;;;;;;;8.32;1.65;;;12.30;99.90;;;;;;5077606;28;20123;-66
2023/01/01 07:34:18;;;;;;;7.22;1.02;;;12.20;99.90;;;;;;5077245;28;20051;-66
2023/01/01 07:36:43;;;;;;;6.47;1.35;;;12.20;99.90;;;;;;5075837;28;20464;-66
2023/01/01 07:39:09;;;;;;;9.13;1.33;;;12.20;99.90;;;;;;5072085;28;20040;-65
2023/01/01 07:41:35;;;;;;;13.40;2.00;;;12.20;99.90;;;;;;5085478;28;20373;-66
2023/01/01 07:44:01;;;;;;;9.23;1.50;;;12.20;99.90;;;;;;5083754;28;20051;-66
2023/01/01 07:46:27;;;;;;;8.85;1.50;;;12.20;99.90;;;;;;5065935;28;20039;-65
2023/01/01 07:48:52;;;;;;;11.10;2.08;;;12.20;99.90;;;;;;5084667;28;20112;-66
2023/01/01 07:51:18;;;;;;;8.02;1.77;;;12.20;99.90;;;;;;5080059;28;20348;-66
2023/01/01 07:53:44;;;;;;;8.77;2.05;;;12.10;99.90;;;;;;5084603;28;20040;-65
2023/01/01 07:56:09;;;;;;;10.85;1.83;;;12.10;99.90;;;;;;5082974;28;20043;-66
2023/01/01 07:58:39;;;;;;;6.35;1.25;;;12.10;99.90;;;;;;5085865;28;20412;-65
2023/01/01 08:01:05;;;;;;;8.35;1.50;;;12.10;99.90;;;;;;5064042;28;20105;-66
2023/01/01 08:03:30;;;;;;;6.07;1.00;;;12.10;99.90;;;;;;5081648;28;20434;-65
2023/01/01 08:05:56;;;;;;;11.35;1.92;;;12.10;99.90;;;;;;5083592;28;20278;-65
2023/01/01 08:08:22;;;;;;;9.80;1.85;;;12.00;99.90;;;;;;5087378;28;20546;-66
2023/01/01 08:10:47;;;;;;;8.55;1.48;;;12.00;99.90;;;;;;5086464;28;20036;-65
2023/01/01 08:13:13;;;;;;;7.30;1.20;;;12.00;99.90;;;;;;5082414;28;20078;-65
2023/01/01 08:15:39;;;;;;;7.35;1.05;;;12.10;99.90;;;;;;5080204;28;20476;-66
2023/01/01 08:18:05;;;;;;;8.93;1.60;;;12.00;99.90;;;;;;5082569;28;20970;-66
2023/01/01 08:20:32;;;;;;;9.57;1.95;;;12.00;99.90;;;;;;5081193;28;20535;-65
2023/01/01 08:22:58;;;;;;;8.82;1.63;;;12.00;99.90;;;;;;5082630;28;20097;-65
2023/01/01 08:25:23;;;;;;;7.78;1.17;;;12.00;99.90;;;;;;5081452;28;20036;-65
2023/01/01 08:27:49;;;;;;;8.40;1.10;;;11.90;99.90;;;;;;5084765;28;20456;-65
2023/01/01 08:30:16;;;;;;;7.10;1.58;;;11.90;99.90;;;;;;5064345;28;20052;-65
2023/01/01 08:32:42;;;;;;;8.88;1.92;;;11.90;99.90;;;;;;5087202;28;20067;-66
2023/01/01 08:35:08;;;;;;;8.15;1.50;;;11.90;99.90;;;;;;5081268;28;20036;-65
2023/01/01 08:37:34;;;;;;;8.32;1.70;;;11.90;99.90;;;;;;5082871;28;20036;-65
2023/01/01 08:39:59;;;;;;;8.38;1.35;;;11.90;99.90;;;;;;5081797;28;20478;-65
2023/01/01 08:42:25;;;;;;;10.20;1.58;;;11.80;99.90;;;;;;5084686;28;20040;-65
2023/01/01 08:44:51;;;;;;;10.57;1.88;;;11.80;99.90;;;;;;5082541;28;20048;-65
2023/01/01 08:47:19;;;;;;;12.32;1.60;;;11.80;99.90;;;;;;5083766;28;20119;-65
2023/01/01 08:49:44;;;;;;;10.73;1.85;;;11.80;99.90;;;;;;5077664;28;20098;-65
2023/01/01 08:52:10;;;;;;;8.07;1.38;;;11.80;99.90;;;;;;5083895;28;20075;-65
2023/01/01 08:54:36;;;;;;;9.75;1.40;;;11.80;99.90;;;;;;5084014;28;20040;-65
2023/01/01 08:57:02;;;;;;;12.35;1.75;;;11.80;99.90;;;;;;5084951;28;20036;-65
2023/01/01 08:59:27;;;;;;;10.63;1.80;;;11.80;99.90;;;;;;5084021;28;20484;-65
2023/01/01 09:01:53;;;;;;;8.88;1.58;;;11.80;99.90;;;;;;5083737;28;20032;-65
2023/01/01 09:04:19;;;;;;;8.32;1.65;;;11.80;99.90;;;;;;5086305;28;20116;-65
2023/01/01 09:06:44;;;;;;;10.32;1.67;;;11.80;99.90;;;;;;5082003;28;20447;-65
2023/01/01 09:09:10;;;;;;;9.82;1.58;;;11.80;99.90;;;;;;5063214;28;20067;-65
2023/01/01 09:11:36;;;;;;;8.63;1.70;;;11.80;99.90;;;;;;5079797;28;20048;-65
2023/01/01 09:14:02;;;;;;;10.05;1.73;;;11.80;99.90;;;;;;5087791;28;20044;-65
2023/01/01 09:16:27;;;;;;;8.18;1.48;;;11.80;99.90;;;;;;5079497;28;20036;-65
2023/01/01 09:18:53;;;;;;;14.48;2.22;;;11.80;99.90;;;;;;5079127;28;20039;-65
2023/01/01 09:21:19;;;;;;;8.88;1.38;;;11.80;99.90;;;;;;5078678;28;20094;-66
2023/01/01 09:23:45;;;;;;;8.68;1.70;;;11.80;99.90;;;;;;5082661;28;20048;-65
2023/01/01 09:26:10;;;;;;;10.57;1.70;;;11.80;99.90;;;;;;5077393;28;20037;-65
2023/01/01 09:28:37;;;;;;;10.00;1.58;;;11.80;99.90;;;;;;5076985;28;20072;-66
2023/01/01 09:31:05;;;;;;;7.72;1.60;;;11.80;99.90;;;;;;5080068;28;20498;-65
2023/01/01 09:33:31;;;;;;;11.77;1.83;;;11.90;99.90;;;;;;5080383;28;20048;-65
2023/01/01 09:36:19;;;;;;;11.13;1.75;;;11.80;99.90;;;;;;5061036;28;20064;-65
2023/01/01 09:38:52;;;;;;;13.40;2.40;;;11.80;99.90;;;;;;5079169;28;20083;-65
2023/01/01 09:42:03;;;;;;;11.95;2.15;;;11.90;99.90;;;;;;5077632;28;20044;-65
2023/01/01 09:44:37;;;;;;;13.40;1.90;;;11.90;99.90;;;;;;5055131;28;20045;-65
2023/01/01 09:47:09;;;;;;;12.05;2.20;;;12.00;99.90;;;;;;5059696;28;20056;-65
2023/01/01 09:49:40;;;;;;;11.82;1.63;;;12.00;99.90;;;;;;5055746;28;20045;-65
2023/01/01 09:52:09;;;;;;;10.35;1.80;;;12.00;99.90;;;;;;5061338;28;20044;-66
2023/01/01 09:54:50;;;;;;;12.65;1.90;;;12.00;99.90;;;;;;5055751;28;20104;-65
2023/01/01 09:57:16;;;;;;;9.25;1.42;;;12.00;99.90;;;;;;5055552;28;20051;-65
2023/01/01 09:59:42;;;;;;;9.15;1.80;;;12.00;99.90;;;;;;5059161;28;20044;-65
2023/01/01 10:02:45;;;;;;;10.45;1.48;;;12.00;99.90;;;;;;5057693;28;20170;-65
2023/01/01 10:05:31;;;;;;;10.75;1.63;;;12.00;99.90;;;;;;5061218;28;20086;-65
2023/01/01 10:08:18;;;;;;;11.80;1.67;;;12.10;99.90;;;;;;5062205;28;20039;-65
2023/01/01 10:10:54;;;;;;;9.27;1.88;;;12.10;99.90;;;;;;5059720;28;20037;-65
2023/01/01 10:13:35;;;;;;;11.25;1.90;;;12.10;99.90;;;;;;5060509;28;20036;-65
2023/01/01 10:16:20;;;;;;;10.95;2.08;;;12.10;99.90;;;;;;5055983;28;20044;-65
2023/01/01 10:18:50;;;;;;;6.72;1.50;;;12.10;99.90;;;;;;5064089;28;20044;-65
2023/01/01 10:21:31;;;;;;;15.18;2.40;;;12.00;99.90;;;;;;5055327;28;20048;-65
2023/01/01 10:24:21;;;;;;;9.77;2.05;;;12.00;99.90;;;;;;5060518;28;20098;-65
2023/01/01 10:26:49;;;;;;;10.63;1.58;;;12.00;99.90;;;;;;5056687;28;20109;-65
2023/01/01 10:29:23;;;;;;;8.23;1.67;;;12.00;99.90;;;;;;5063217;28;20043;-65
2023/01/01 10:31:50;;;;;;;6.65;1.30;;;12.00;99.90;;;;;;5055887;28;20063;-65
2023/01/01 10:34:23;;;;;;;9.32;1.85;;;12.10;99.90;;;;;;5059392;28;20520;-65
2023/01/01 10:36:52;;;;;;;10.02;1.58;;;12.10;99.90;;;;;;5057846;28;20059;-65
2023/01/01 10:39:18;;;;;;;15.57;2.40;;;12.20;99.90;;;;;;5055325;28;20040;-65
2023/01/01 10:41:46;;;;;;;13.30;2.30;;;12.30;99.90;;;;;;5056746;28;20487;-65
2023/01/01 10:44:13;;;;;;;10.63;1.98;;;12.30;99.90;;;;;;5070825;28;20051;-65
2023/01/01 10:46:45;;;;;;;5.85;1.05;;;12.40;99.90;;;;;;5076322;28;20191;-65
2023/01/01 10:49:13;;;;;;;11.43;1.95;;;12.40;99.90;;;;;;5080247;28;20278;-65
2023/01/01 10:51:45;;;;;;;10.48;1.77;;;12.40;99.90;;;;;;5078717;28;20113;-65
2023/01/01 10:54:20;;;;;;;9.25;2.03;;;12.50;99.90;;;;;;5073177;28;20079;-65
2023/01/01 10:56:46;;;;;;;7.80;1.52;;;12.50;99.90;;;;;;5073327;28;20101;-65
2023/01/01 10:59:42;;;;;;;12.25;2.15;;;12.50;99.90;;;;;;5082102;28;20036;-65
2023/01/01 11:02:21;;;;;;;11.18;1.73;;;12.50;99.90;;;;;;5057683;28;20133;-65
2023/01/01 11:04:48;;;;;;;8.90;1.63;;;12.60;99.90;;;;;;5073564;28;20040;-65
2023/01/01 11:07:23;;;;;;;14.20;1.65;;;12.60;99.90;;;;;;5079801;28;20051;-65
2023/01/01 11:09:49;;;;;;;11.75;2.53;;;12.60;99.90;;;;;;5081469;28;20047;-65
2023/01/01 11:12:22;;;;;;;12.85;1.63;;;12.60;99.90;;;;;;5073981;28;20056;-65
2023/01/01 11:14:52;;;;;;;11.95;2.15;;;12.60;99.90;;;;;;5078135;28;20046;-65
2023/01/01 11:17:24;;;;;;;9.20;1.50;;;12.60;99.90;;;;;;5079917;28;20044;-65
2023/01/01 11:19:51;;;;;;;10.05;1.60;;;12.60;99.90;;;;;;5077262;28;20039;-65
2023/01/01 11:22:35;;;;;;;13.27;1.90;;;12.60;99.90;;;;;;5073653;28;20116;-65
2023/01/01 11:25:02;;;;;;;10.18;1.80;;;12.60;99.90;;;;;;5077430;28;20033;-65
2023/01/01 11:27:28;;;;;;;14.73;2.22;;;12.50;99.90;;;;;;5078984;28;20366;-65
2023/01/01 11:30:20;;;;;;;11.60;1.63;;;12.60;99.90;;;;;;5075331;28;20040;-65
2023/01/01 11:32:47;;;;;;;12.73;2.33;;;12.50;99.90;;;;;;5073375;28;20127;-65
2023/01/01 11:35:24;;;;;;;12.52;1.92;;;12.50;99.90;;;;;;5077772;28;20051;-65
2023/01/01 11:37:52;;;;;;;11.98;2.00;;;12.60;99.90;;;;;;5058302;28;20056;-65
2023/01/01 11:40:36;;;;;;;11.95;1.80;;;12.60;99.90;;;;;;5075188;28;20037;-65
2023/01/01 11:43:04;;;;;;;11.33;1.80;;;12.70;99.90;;;;;;5074975;28;20032;-65
2023/01/01 11:45:39;;;;;;;11.20;1.67;;;12.70;99.90;;;;;;5080827;28;20131;-65
2023/01/01 11:48:16;;;;;;;12.60;2.05;;;12.60;99.90;;;;;;5077916;28;20234;-65
2023/01/01 11:50:51;;;;;;;13.52;2.38;;;12.70;99.90;;;;;;5078546;28;20040;-65
2023/01/01 11:53:23;;;;;;;11.55;1.73;;;12.70;99.90;;;;;;5060479;28;20329;-65
2023/01/01 11:56:09;;;;;;;14.70;2.30;;;12.70;99.90;;;;;;5079263;28;20040;-65
2023/01/01 11:58:35;;;;;;;9.77;1.92;;;12.70;99.90;;;;;;5077031;28;20502;-65
2023/01/01 12:01:17;;;;;;;13.00;2.20;;;12.80;99.90;;;;;;5076395;28;20067;-65
2023/01/01 12:04:12;;;;;;;8.75;1.67;;;12.70;99.90;;;;;;5082334;28;20044;-65
2023/01/01 12:07:01;;;;;;;13.70;2.10;;;12.80;99.90;;;;;;5079401;28;20040;-65
2023/01/01 12:09:33;;;;;;;12.70;2.08;;;12.70;99.90;;;;;;5075474;28;20278;-65
2023/01/01 12:12:08;;;;;;;10.75;1.77;;;12.70;99.90;;;;;;5061695;28;20072;-65
2023/01/01 12:14:39;;;;;;;12.48;1.88;;;12.70;99.90;;;;;;5076653;28;20027;-65
2023/01/01 12:17:37;;;;;;;14.85;1.98;;;12.70;99.90;;;;;;5078950;28;20569;-65
2023/01/01 12:20:13;;;;;;;10.18;1.88;;;12.70;99.90;;;;;;5070649;28;20197;-65
2023/01/01 12:22:40;;;;;;;10.93;2.10;;;12.70;99.90;;;;;;5077957;28;20112;-65
2023/01/01 12:25:13;;;;;;;10.45;2.22;;;12.70;99.90;;;;;;5074573;28;20472;-65
2023/01/01 12:28:13;;;;;;;12.95;3.38;;;12.70;99.90;;;;;;5063387;28;20037;-65
2023/01/01 12:31:05;;;;;;;10.73;2.25;;;12.70;99.90;;;;;;5081660;28;20194;-64
2023/01/01 12:33:56;;;;;;;13.32;2.45;;;12.60;99.90;;;;;;5086072;28;20047;-64
2023/01/01 12:36:32;;;;;;;9.13;2.33;;;12.60;99.90;;;;;;5076153;28;20048;-64
2023/01/01 12:39:35;;;;;;;11.10;2.88;;;12.60;99.90;;;;;;5074757;28;20048;-69
2023/01/01 12:42:16;;;;;;;11.20;2.60;;;12.60;99.90;;;;;;5080800;28;20037;-66
2023/01/01 12:44:45;;;;;;;14.77;2.60;;;12.60;99.90;;;;;;5064246;28;20048;-66
2023/01/01 12:47:28;;;;;;;11.98;1.83;;;12.60;99.90;;;;;;5060812;28;20041;-66
2023/01/01 12:50:09;;;;;;;10.55;1.98;;;12.50;99.90;;;;;;5078539;28;20039;-67
2023/01/01 12:53:13;;;;;;;11.27;2.60;;;12.50;99.90;;;;;;5077687;28;20056;-67
2023/01/01 12:56:18;;;;;;;10.07;1.60;;;12.50;99.90;;;;;;5081295;28;20046;-68
2023/01/01 12:58:46;;;;;;;10.93;1.97;;;12.40;99.90;;;;;;5058510;28;20727;-68
2023/01/01 13:01:19;;;;;;;12.07;2.28;;;12.40;99.90;;;;;;5082344;28;20032;-68
2023/01/01 13:03:50;;;;;;;14.82;2.05;;;12.40;99.90;;;;;;5082635;28;20078;-67
2023/01/01 13:06:20;;;;;;;10.68;1.73;;;12.40;99.90;;;;;;5084978;28;20472;-67